Latest Weather Observations for Winton

IDQ60801

Issued at 6:02 pm EST Thursday 30 July 2015 (issued every 30 minutes, with the page automatically refreshed every 10 minutes)

About weather observations | Map of weather stations | Latest weather observations for QLD | Other Formats
Station Details ID: 037039 Name: WINTON AIRPORT Lat: -22.36 Lon: 143.08 Height: 192.2 m
Data from the previous 72 hours. | See also: Recent months at Winton
Date/Time
EST
Temp
°C
App
Temp
°C
Dew
Point
Rel
Hum
%
Delta-T
°C
Wind Press
QNH
hPa
Press
MSL
hPa
Rain
since 9 am
mm
Dir
 
Spd
km/h
Gust
km/h
Spd
kts
Gust
kts
30/06:00pm 24.0 20.0 0.4 21 10.9 SE 11 15 6 8 1020.2 1019.9 0.0
30/05:30pm 25.3 21.0 0.8 20 11.5 SE 13 20 7 11 1020.0 1019.7 0.0
30/05:00pm 25.8 22.0 1.8 21 11.6 E 11 20 6 11 1020.1 1019.8 0.0
30/04:30pm 26.1 22.2 1.4 20 11.9 SE 11 19 6 10 1020.0 1019.7 0.0
30/04:00pm 26.0 21.9 2.0 21 11.6 SE 13 20 7 11 1020.2 1019.9 0.0
30/03:30pm 25.9 22.5 1.9 21 11.6 ESE 9 22 5 12 1020.3 1020.0 0.0
30/03:00pm 25.9 21.6 1.2 20 11.8 ESE 13 22 7 12 1020.6 1020.3 0.0
30/02:30pm 25.9 22.0 1.2 20 11.8 ESE 11 22 6 12 1021.1 1020.8 0.0
30/02:00pm 25.2 20.9 1.3 21 11.3 E 13 22 7 12 1021.6 1021.2 0.0
30/01:30pm 25.1 21.1 3.1 24 10.8 ESE 13 20 7 11 1022.0 1021.7 0.0
30/01:00pm 24.6 20.3 3.3 25 10.4 E 15 28 8 15 1022.5 1022.2 0.0
30/12:30pm 24.4 19.8 3.7 26 10.3 ENE 17 24 9 13 1023.1 1022.8 0.0
30/12:00pm 23.4 19.2 3.9 28 9.6 E 15 26 8 14 1023.6 1023.3 0.0
30/11:30am 22.8 17.8 4.8 31 9.0 ENE 20 26 11 14 1024.0 1023.7 0.0
30/11:00am 22.5 17.2 5.0 32 8.7 E 22 32 12 17 1024.5 1024.2 0.0
30/10:30am 21.5 15.4 4.6 33 8.3 ENE 26 33 14 18 1024.8 1024.5 0.0
30/10:00am 20.9 14.9 5.3 36 7.7 ENE 26 35 14 19 1025.0 1024.7 0.0
30/09:30am 18.6 13.7 5.1 41 6.6 ENE 20 28 11 15 1024.9 1024.6 0.0
30/09:00am 15.9 11.2 3.4 43 5.7 E 17 20 9 11 1024.8 1024.5 0.0
30/08:30am 13.8 9.2 1.8 44 5.3 ESE 15 20 8 11 1024.7 1024.4 0.0
30/08:00am 12.0 7.9 0.1 44 4.9 ESE 11 13 6 7 1024.5 1024.2 0.0
30/07:30am 9.8 5.5 -1.6 45 4.5 ESE 11 13 6 7 1024.1 1023.8 0.0
30/07:00am 8.1 4.0 -3.4 44 4.2 ESE 9 13 5 7 1023.8 1023.5 0.0
30/06:30am 7.8 4.0 -3.7 44 4.2 ESE 7 9 4 5 1023.3 1023.0 0.0
30/06:00am 7.6 3.0 -4.2 43 4.2 ESE 11 13 6 7 1023.0 1022.7 0.0
30/05:30am 8.0 3.4 -4.4 41 4.4 ESE 11 13 6 7 1022.8 1022.5 0.0
30/05:00am 7.8 3.5 -5.3 39 4.5 E 9 11 5 6 1022.8 1022.5 0.0
30/04:30am 8.7 4.1 -4.5 39 4.7 E 11 11 6 6 1022.6 1022.3 0.0
30/04:00am 9.2 4.2 -4.7 37 5.0 E 13 15 7 8 1022.7 1022.4 0.0
30/03:30am 9.8 4.7 -4.9 35 5.3 ESE 13 17 7 9 1022.8 1022.5 0.0
30/03:00am 10.4 5.3 -4.8 34 5.5 E 13 20 7 11 1022.9 1022.6 0.0
30/02:30am 10.8 5.3 -5.2 32 5.8 ESE 15 20 8 11 1022.9 1022.6 0.0
30/02:00am 11.3 5.1 -5.2 31 6.0 ESE 19 22 10 12 1023.0 1022.7 0.0
30/01:30am 11.4 5.9 -5.5 30 6.1 ESE 15 17 8 9 1023.4 1023.1 0.0
30/01:00am 11.7 6.2 -5.3 30 6.2 ESE 15 17 8 9 1023.7 1023.4 0.0
30/12:30am 11.7 6.6 -5.3 30 6.2 SE 13 15 7 8 1024.2 1023.9 0.0
30/12:00am 12.1 6.6 -5.4 29 6.4 ESE 15 17 8 9 1024.3 1024.0 0.0
 
Date/Time
EST
Temp
°C
App
Temp
°C
Dew
Point
Rel
Hum
%
Delta-T
°C
Wind Press
QNH
hPa
Press
MSL
hPa
Rain
since 9 am
mm
Dir
 
Spd
km/h
Gust
km/h
Spd
kts
Gust
kts
29/11:30pm 12.4 7.3 -5.1 29 6.5 ESE 13 15 7 8 1024.5 1024.2 0.0
29/11:00pm 12.0 6.9 -5.5 29 6.4 ESE 13 15 7 8 1024.7 1024.4 0.0
29/10:30pm 13.1 8.0 -5.4 27 6.9 ESE 13 15 7 8 1024.5 1024.2 0.0
29/10:00pm 13.5 8.4 -5.6 26 7.1 ESE 13 13 7 7 1024.6 1024.3 0.0
29/09:30pm 13.4 8.7 -5.2 27 7.0 ESE 11 13 6 7 1024.4 1024.1 0.0
29/09:00pm 15.2 11.4 -3.6 27 7.4 SE 7 9 4 5 1024.4 1024.1 0.0
29/08:30pm 16.8 12.3 -3.3 25 8.1 SSE 11 13 6 7 1024.3 1024.0 0.0
29/08:00pm 17.7 13.2 -3.1 24 8.5 SSE 11 13 6 7 1024.0 1023.7 0.0
29/07:30pm 18.2 13.8 -2.7 24 8.7 SSE 11 13 6 7 1023.6 1023.3 0.0
29/07:00pm 19.8 14.8 -1.3 24 9.1 SE 15 17 8 9 1023.2 1022.9 0.0
29/06:30pm 21.3 15.8 -1.9 21 10.1 SE 17 19 9 10 1022.8 1022.5 0.0
29/06:00pm 22.8 16.6 0.0 22 10.4 SE 22 30 12 16 1022.7 1022.4 0.0
29/05:30pm 24.0 17.3 -1.0 19 11.3 SE 24 35 13 19 1022.6 1022.3 0.0
29/05:00pm 24.7 18.9 -0.4 19 11.5 SE 20 26 11 14 1022.5 1022.2 0.0
29/04:30pm 24.9 19.3 -0.3 19 11.6 ESE 19 30 10 16 1022.2 1021.9 0.0
29/04:00pm 24.9 19.4 0.4 20 11.4 ESE 19 28 10 15 1022.4 1022.1 0.0
29/03:30pm 25.2 19.5 -0.8 18 11.9 ESE 19 30 10 16 1022.6 1022.3 0.0
29/03:00pm 24.9 19.5 1.1 21 11.2 ESE 19 32 10 17 1023.2 1022.9 0.0
29/02:30pm 25.0 19.6 1.2 21 11.3 ESE 19 32 10 17 1023.5 1023.2 0.0
29/02:00pm 24.1 19.2 2.3 24 10.5 ESE 17 28 9 15 1023.8 1023.5 0.0
29/01:30pm 23.6 18.3 1.9 24 10.3 ESE 19 28 10 15 1024.1 1023.8 0.0
29/01:00pm 22.9 17.5 2.4 26 9.8 E 20 30 11 16 1024.8 1024.5 0.0
29/12:30pm 22.4 17.2 3.5 29 9.2 E 20 32 11 17 1025.5 1025.2 0.0
29/12:00pm 21.7 15.8 3.9 31 8.6 E 24 39 13 21 1026.0 1025.7 0.0
29/11:30am 20.6 14.1 2.4 30 8.6 E 26 35 14 19 1026.6 1026.4 0.0
29/11:00am 19.6 13.1 0.6 28 8.5 ESE 24 35 13 19 1027.4 1027.1 0.0
29/10:30am 17.6 9.8 -0.6 29 7.9 ESE 30 37 16 20 1027.6 1027.3 0.0
29/10:00am 16.7 8.4 -1.4 29 7.6 E 32 41 17 22 1027.5 1027.2 0.0
29/09:30am 14.7 7.0 -2.7 30 7.0 E 28 39 15 21 1027.4 1027.1 0.0
29/09:00am 12.5 4.0 -3.7 32 6.2 ESE 32 41 17 22 1027.5 1027.2 0.0
29/08:30am 11.1 3.7 -3.4 36 5.5 ESE 26 33 14 18 1027.5 1027.2 0.0
29/08:00am 9.3 2.3 -3.9 39 4.8 ESE 24 32 13 17 1027.3 1027.0 0.0
29/07:30am 8.5 2.2 -4.0 41 4.5 ESE 20 26 11 14 1027.3 1027.0 0.0
29/07:00am 8.1 2.0 -4.0 42 4.3 ESE 19 26 10 14 1026.9 1026.6 0.0
29/06:30am 8.4 2.3 -4.1 41 4.5 ESE 19 26 10 14 1026.3 1026.1 0.0
29/06:00am 8.9 2.6 -3.9 40 4.6 ESE 20 28 11 15 1026.1 1025.8 0.0
29/05:30am 9.1 2.4 -4.1 39 4.8 ESE 22 28 12 15 1025.9 1025.6 0.0
29/05:00am 9.8 3.1 -3.8 38 5.0 SE 22 30 12 16 1026.1 1025.8 0.0
29/04:30am 10.2 3.9 -4.2 36 5.3 ESE 20 28 11 15 1026.2 1026.0 0.0
29/04:00am 10.8 3.4 -4.0 35 5.5 SE 26 33 14 18 1026.2 1026.0 0.0
29/03:30am 11.5 4.8 -3.8 34 5.8 SE 22 33 12 18 1026.0 1025.7 0.0
29/03:00am 11.3 4.2 -4.4 33 5.8 SE 24 30 13 16 1026.1 1025.8 0.0
29/02:30am 11.8 4.7 -4.3 32 6.0 SE 24 32 13 17 1025.7 1025.4 0.0
29/02:00am 12.5 4.7 -4.1 31 6.3 SE 28 33 15 18 1025.8 1025.5 0.0
29/01:30am 13.0 4.8 -4.1 30 6.5 SE 30 39 16 21 1025.9 1025.6 0.0
29/01:00am 13.8 5.6 -3.9 29 6.8 SE 30 39 16 21 1026.1 1025.8 0.0
29/12:30am 14.4 6.2 -3.9 28 7.1 SE 30 37 16 20 1026.3 1026.1 0.0
29/12:00am 14.5 6.6 -4.7 26 7.3 SE 28 39 15 21 1026.4 1026.2 0.0
 
Date/Time
EST
Temp
°C
App
Temp
°C
Dew
Point
Rel
Hum
%
Delta-T
°C
Wind Press
QNH
hPa
Press
MSL
hPa
Rain
since 9 am
mm
Dir
 
Spd
km/h
Gust
km/h
Spd
kts
Gust
kts
28/11:30pm 15.1 8.0 -4.8 25 7.7 SE 24 32 13 17 1026.4 1026.2 0.0
28/11:00pm 15.3 8.5 -5.1 24 7.8 SE 22 30 12 16 1026.7 1026.5 0.0
28/10:30pm 15.8 8.6 -5.3 23 8.1 SSE 24 32 13 17 1026.6 1026.4 0.0
28/10:00pm 16.4 9.6 -4.8 23 8.2 SSE 22 30 12 16 1026.9 1026.6 0.0
28/09:30pm 16.6 9.8 -5.2 22 8.5 SSE 22 32 12 17 1026.9 1026.6 0.0
28/09:00pm 16.9 10.1 -4.9 22 8.5 SSE 22 33 12 18 1026.5 1026.3 0.0
28/08:30pm 16.8 11.3 -5.6 21 8.6 SSE 15 22 8 12 1026.4 1026.2 0.0
28/08:00pm 16.6 11.1 -5.8 21 8.5 SSE 15 17 8 9 1026.0 1025.7 0.0
28/07:30pm 16.6 11.8 -6.4 20 8.7 SSE 11 15 6 8 1025.7 1025.4 0.0
28/07:00pm 18.1 12.9 -5.9 19 9.3 SSE 13 17 7 9 1025.3 1025.0 0.0
28/06:30pm 19.2 13.7 -5.7 18 9.8 SE 15 19 8 10 1024.9 1024.6 0.0
28/06:00pm 20.8 14.4 -5.1 17 10.5 SE 20 32 11 17 1024.7 1024.4 0.0
28/05:30pm 22.0 14.1 -4.9 16 11.1 SE 28 33 15 18 1024.5 1024.2 0.0
28/05:00pm 22.7 14.8 -4.4 16 11.3 SE 28 37 15 20 1024.5 1024.2 0.0
28/04:30pm 23.1 15.5 -2.5 18 11.2 SE 28 35 15 19 1024.5 1024.2 0.0
28/04:00pm 23.3 15.8 -1.6 19 11.0 SSE 28 37 15 20 1024.4 1024.1 0.0
28/03:30pm 23.9 16.1 -1.1 19 11.3 SE 30 37 16 20 1024.5 1024.2 0.0
28/03:00pm 23.4 15.2 -0.8 20 10.9 SSE 32 44 17 24 1024.7 1024.4 0.0
28/02:30pm 23.5 15.3 -0.7 20 11.0 SE 32 43 17 23 1025.0 1024.7 0.0
28/02:00pm 23.7 16.1 0.7 22 10.7 SE 30 43 16 23 1025.2 1024.9 0.0
28/01:30pm 22.4 14.3 0.9 24 10.0 SE 33 44 18 24 1025.3 1025.0 0.0
28/01:00pm 22.3 14.4 1.3 25 9.7 SE 32 41 17 22 1025.7 1025.4 0.0
28/12:30pm 21.4 13.5 2.2 28 9.0 SE 33 44 18 24 1026.4 1026.2 0.0
28/12:00pm 20.1 11.9 2.5 31 8.2 SE 35 46 19 25 1027.0 1026.7 0.0
28/11:30am 19.4 10.8 2.7 33 7.8 SE 37 46 20 25 1027.3 1027.0 0.0
28/11:00am 18.4 9.5 3.1 36 7.1 SE 39 46 21 25 1027.9 1027.6 0.0
28/10:30am 16.8 8.2 2.4 38 6.6 SE 37 48 20 26 1028.1 1027.8 0.0
28/10:00am 15.9 6.6 3.0 42 5.9 SE 41 50 22 27 1028.3 1028.0 0.0
28/09:30am 14.8 5.9 3.0 45 5.4 SE 39 48 21 26 1028.2 1027.9 0.0
28/09:00am 14.0 5.1 3.2 48 4.9 SE 39 50 21 27 1028.0 1027.7 0.0
28/08:30am 13.2 4.3 3.0 50 4.6 SE 39 50 21 27 1027.8 1027.5 0.0
28/08:00am 12.7 4.6 3.1 52 4.3 SE 35 46 19 25 1027.8 1027.5 0.0
28/07:30am 12.5 5.4 3.5 54 4.1 SE 30 39 16 21 1027.6 1027.3 0.0
28/07:00am 12.8 6.1 3.7 54 4.1 SE 28 39 15 21 1027.4 1027.1 0.0
28/06:30am 13.4 6.4 4.0 53 4.3 SE 30 37 16 20 1027.1 1026.8 0.0
28/06:00am 13.7 7.4 4.0 52 4.4 SE 26 35 14 19 1026.7 1026.5 0.0
28/05:30am 14.1 7.9 4.4 52 4.5 SE 26 33 14 18 1026.5 1026.3 0.0
28/05:00am 14.5 8.0 4.5 51 4.7 SE 28 41 15 22 1026.1 1025.8 0.0
28/04:30am 15.0 8.9 4.7 50 4.9 SE 26 35 14 19 1026.1 1025.8 0.0
28/04:00am 15.6 9.1 4.6 48 5.2 SSE 28 35 15 19 1025.8 1025.5 0.0
28/03:30am 16.0 10.3 4.7 47 5.4 SSE 24 35 13 19 1025.8 1025.5 0.0
28/03:00am 16.5 10.0 4.5 45 5.7 SSE 28 39 15 21 1025.8 1025.5 0.0
28/02:30am 16.7 11.6 4.1 43 5.9 SSE 20 30 11 16 1025.7 1025.4 0.0
28/02:00am 17.3 11.7 3.6 40 6.4 SSE 22 28 12 15 1025.8 1025.5 0.0
28/01:30am 17.6 12.3 3.1 38 6.8 SSE 20 30 11 16 1025.9 1025.6 0.0
28/01:00am 18.1 13.0 2.8 36 7.1 SSE 19 28 10 15 1026.1 1025.8 0.0
28/12:30am 18.2 13.5 2.9 36 7.1 SSE 17 22 9 12 1026.4 1026.2 0.0
28/12:00am 18.5 13.2 2.8 35 7.3 SSE 20 26 11 14 1026.3 1026.1 0.0
 
Date/Time
EST
Temp
°C
App
Temp
°C
Dew
Point
Rel
Hum
%
Delta-T
°C
Wind Press
QNH
hPa
Press
MSL
hPa
Rain
since 9 am
mm
Dir
 
Spd
km/h
Gust
km/h
Spd
kts
Gust
kts
27/11:30pm 18.6 13.5 2.9 35 7.3 SSE 19 24 10 13 1026.6 1026.4 0.0
27/11:00pm 18.4 13.5 2.3 34 7.4 SSE 17 26 9 14 1026.7 1026.5 0.0
27/10:30pm 18.8 13.6 2.6 34 7.5 SSE 19 26 10 14 1027.0 1026.7 0.0
27/10:00pm 18.8 13.9 2.2 33 7.6 SSE 17 24 9 13 1027.1 1026.8 0.0
27/09:30pm 19.0 14.0 1.5 31 8.0 S 17 20 9 11 1027.1 1026.8 0.0
27/09:00pm 19.2 14.9 1.2 30 8.1 SSE 13 19 7 10 1026.9 1026.6 0.0
27/08:30pm 19.7 14.8 1.7 30 8.3 S 17 22 9 12 1026.4 1026.2 0.0
27/08:00pm 20.1 14.5 1.5 29 8.5 SSE 20 26 11 14 1026.2 1026.0 0.0
27/07:30pm 20.1 15.8 1.0 28 8.7 SSE 13 17 7 9 1025.8 1025.5 0.0
27/07:00pm 20.5 15.5 1.4 28 8.7 SSE 17 24 9 13 1025.5 1025.2 0.0
27/06:30pm 20.8 15.7 0.6 26 9.2 SSE 17 28 9 15 1025.4 1025.1 0.0

Other Formats:

Comma delimited format used in spreadsheet applications
http://www.bom.gov.au/fwo/IDQ60801/IDQ60801.94342.axf

JavaScript Object Notation format (JSON) in row-major order
http://www.bom.gov.au/fwo/IDQ60801/IDQ60801.94342.json